Time;durP1;ratioP1;P1;durP2;ratioP2;P2;SDS_P1;SDS_P2;PMS_P1;PMS_P2;Temp;Humidity;BMP_temperature;BMP_pressure;BME280_temperature;BME280_humidity;BME280_pressure;Samples;Min_cycle;Max_cycle;Signal;HPM_P1;HPM_P2
2021/03/11 05:10:52;;;;;;;1.10;1.10;;;7.20;99.90;;;;;;5774327;23;20232;-80
2021/03/11 05:13:18;;;;;;;1.10;1.10;;;6.80;99.90;;;;;;5002187;28;20216;-80
2021/03/11 05:15:45;;;;;;;1.00;1.00;;;6.60;99.90;;;;;;4996474;28;20254;-79
2021/03/11 05:18:12;;;;;;;1.00;1.00;;;6.70;99.90;;;;;;4995276;28;20703;-79
2021/03/11 05:20:40;;;;;;;1.07;1.07;;;;;;;;;;4995703;28;20224;-79
2021/03/11 05:23:07;;;;;;;0.90;0.90;;;;;;;;;;4996175;28;20240;-79
2021/03/11 05:25:34;;;;;;;1.30;1.30;;;6.60;99.90;;;;;;4996824;28;20266;-81
2021/03/11 05:28:01;;;;;;;1.30;1.30;;;6.50;99.90;;;;;;4994950;28;20648;-80
2021/03/11 05:30:28;;;;;;;1.10;1.10;;;6.70;99.90;;;;;;4991257;28;20207;-80
2021/03/11 05:32:55;;;;;;;1.00;1.00;;;;;;;;;;4980328;28;20211;-78
2021/03/11 05:35:22;;;;;;;0.90;0.90;;;6.70;99.90;;;;;;4975859;28;20736;-79
2021/03/11 05:37:49;;;;;;;1.00;1.00;;;6.60;99.90;;;;;;4977027;28;20232;-79
2021/03/11 05:40:16;;;;;;;1.00;1.00;;;6.60;99.90;;;;;;4977413;28;20211;-80
2021/03/11 05:42:45;;;;;;;1.13;1.13;;;6.60;99.90;;;;;;4975963;28;20211;-81
2021/03/11 05:45:13;;;;;;;1.10;1.10;;;6.50;99.90;;;;;;4976082;28;20204;-80
2021/03/11 05:47:43;;;;;;;1.27;1.27;;;6.50;99.90;;;;;;4976015;28;20208;-80
2021/03/11 05:50:11;;;;;;;1.03;1.03;;;6.50;99.90;;;;;;4992392;28;20200;-79
2021/03/11 05:52:38;;;;;;;1.00;1.00;;;6.60;99.90;;;;;;4987582;28;20203;-81
2021/03/11 05:55:07;;;;;;;1.40;1.40;;;6.60;99.90;;;;;;4984949;28;20203;-81
2021/03/11 05:57:41;;;;;;;1.30;1.30;;;;;;;;;;4983818;28;20231;-80
2021/03/11 06:00:10;;;;;;;0.90;0.90;;;6.50;99.90;;;;;;4984348;28;20207;-80
2021/03/11 06:02:39;;;;;;;0.80;0.80;;;6.60;99.90;;;;;;4991271;28;20212;-76
2021/03/11 06:05:08;;;;;;;1.10;1.10;;;6.60;99.90;;;;;;4986128;28;20220;-77
2021/03/11 06:07:37;;;;;;;1.10;1.10;;;6.50;99.90;;;;;;4989432;28;20200;-79
2021/03/11 06:10:06;;;;;;;1.10;1.10;;;6.70;99.90;;;;;;4992226;28;20204;-79
2021/03/11 06:12:33;;;;;;;1.00;1.00;;;6.70;99.90;;;;;;5008115;28;20224;-79
2021/03/11 06:15:07;;;;;;;0.90;0.90;;;6.60;99.90;;;;;;4996084;28;20212;-81
2021/03/11 06:17:34;;;;;;;0.97;0.97;;;6.60;99.90;;;;;;4977044;28;20212;-79
2021/03/11 06:20:02;;;;;;;1.10;1.10;;;6.60;99.90;;;;;;4976267;28;20200;-77
2021/03/11 06:22:29;;;;;;;1.20;1.20;;;;;;;;;;4995357;28;20227;-79
2021/03/11 06:24:57;;;;;;;1.33;1.33;;;;;;;;;;4995828;28;20508;-79
2021/03/11 06:27:24;;;;;;;1.30;1.30;;;;;;;;;;4991356;28;20299;-76
2021/03/11 06:29:51;;;;;;;1.00;1.00;;;6.70;99.90;;;;;;4985646;28;20244;-79
2021/03/11 06:32:19;;;;;;;0.97;0.97;;;6.80;99.90;;;;;;4976946;28;20232;-80
2021/03/11 06:34:46;;;;;;;1.10;1.10;;;;;;;;;;4979949;28;20208;-78
2021/03/11 06:37:15;;;;;;;1.00;1.00;;;6.80;99.90;;;;;;4979494;28;20221;-78
2021/03/11 06:39:43;;;;;;;1.00;1.00;;;6.70;99.90;;;;;;4978331;28;20220;-77
2021/03/11 06:42:11;;;;;;;1.00;1.00;;;6.60;99.90;;;;;;4977941;28;20232;-79
2021/03/11 06:44:40;;;;;;;1.13;1.13;;;6.80;99.90;;;;;;4979775;28;20212;-78
2021/03/11 06:47:09;;;;;;;1.13;1.13;;;7.00;99.90;;;;;;4980935;28;20216;-77
2021/03/11 06:49:54;;;;;;;1.10;1.10;;;6.70;99.90;;;;;;4979651;28;20232;-79
2021/03/11 06:52:23;;;;;;;1.20;1.20;;;6.40;99.90;;;;;;4979254;28;20221;-78
2021/03/11 06:54:57;;;;;;;1.10;1.10;;;6.50;99.90;;;;;;4979129;28;20205;-78
2021/03/11 06:57:30;;;;;;;1.10;1.10;;;6.40;99.90;;;;;;4979003;28;20224;-78
2021/03/11 06:59:57;;;;;;;0.90;0.90;;;6.40;99.90;;;;;;4979453;28;20209;-78
2021/03/11 07:02:26;;;;;;;1.10;1.10;;;6.20;99.90;;;;;;4978319;28;20287;-79
2021/03/11 07:04:54;;;;;;;1.10;1.10;;;6.30;99.90;;;;;;4979625;28;20210;-79
2021/03/11 07:07:23;;;;;;;0.93;0.93;;;6.10;99.90;;;;;;4979648;28;20670;-79
2021/03/11 07:09:53;;;;;;;1.10;1.10;;;6.50;99.90;;;;;;4980243;28;20212;-79
2021/03/11 07:12:20;;;;;;;1.30;1.30;;;6.30;99.90;;;;;;4979323;28;20228;-79
2021/03/11 07:14:48;;;;;;;1.20;1.20;;;6.20;99.90;;;;;;4978798;28;20622;-79
2021/03/11 07:17:23;;;;;;;1.20;1.20;;;6.30;99.90;;;;;;4978917;28;20240;-78
2021/03/11 07:20:09;;;;;;;1.10;1.10;;;6.30;99.90;;;;;;4979051;28;20208;-78
2021/03/11 07:22:37;;;;;;;1.00;1.00;;;6.60;99.90;;;;;;4978690;28;20212;-79
2021/03/11 07:25:24;;;;;;;1.00;1.00;;;6.30;99.90;;;;;;4978907;28;20208;-79
2021/03/11 07:27:51;;;;;;;0.83;0.83;;;6.50;99.90;;;;;;4978904;28;20201;-80
2021/03/11 07:30:19;;;;;;;1.07;1.07;;;6.40;99.90;;;;;;4979123;28;20205;-79
2021/03/11 07:32:46;;;;;;;1.13;1.13;;;6.60;99.90;;;;;;4978726;28;20204;-78
2021/03/11 07:35:17;;;;;;;0.90;0.90;;;6.50;99.90;;;;;;4979012;28;20216;-79
2021/03/11 07:37:49;;;;;;;1.00;1.00;;;6.60;99.90;;;;;;4978657;28;20234;-79
2021/03/11 07:40:17;;;;;;;0.90;0.90;;;6.50;99.90;;;;;;4983619;28;20208;-78
2021/03/11 07:42:44;;;;;;;1.10;1.10;;;;;;;;;;5008356;28;20211;-75
2021/03/11 07:45:12;;;;;;;1.10;1.10;;;6.60;99.90;;;;;;5009010;28;20199;-77
2021/03/11 07:47:41;;;;;;;1.17;1.17;;;6.70;99.90;;;;;;5013366;28;20269;-79
2021/03/11 07:50:11;;;;;;;1.20;1.20;;;6.70;99.90;;;;;;4988620;28;20240;-80
2021/03/11 07:52:38;;;;;;;1.00;1.00;;;6.60;99.90;;;;;;4979363;28;20678;-79
2021/03/11 07:55:09;;;;;;;1.10;1.10;;;6.70;99.90;;;;;;4998969;28;20207;-79
2021/03/11 07:57:40;;;;;;;1.00;1.00;;;6.70;99.90;;;;;;4990316;28;20268;-77
2021/03/11 08:00:08;;;;;;;0.90;0.90;;;6.70;99.90;;;;;;4992262;28;20641;-79
2021/03/11 08:02:38;;;;;;;0.90;0.90;;;6.80;99.90;;;;;;4981568;28;20208;-79
2021/03/11 08:05:24;;;;;;;1.00;1.00;;;6.80;99.90;;;;;;4997136;28;20219;-79
2021/03/11 08:08:16;;;;;;;0.80;0.80;;;7.00;99.90;;;;;;4996048;28;20265;-79
2021/03/11 08:10:49;;;;;;;1.00;1.00;;;6.80;99.90;;;;;;4979066;28;20232;-79
2021/03/11 08:13:31;;;;;;;1.13;1.13;;;6.80;99.90;;;;;;4978389;28;20201;-79
2021/03/11 08:15:59;;;;;;;0.80;0.80;;;6.90;99.90;;;;;;4979656;28;20211;-79
2021/03/11 08:18:45;;;;;;;1.00;1.00;;;6.80;99.90;;;;;;4985362;28;20219;-79
2021/03/11 08:21:44;;;;;;;1.10;1.10;;;7.00;99.90;;;;;;4998779;28;20278;-78
2021/03/11 08:24:45;;;;;;;1.07;1.07;;;7.30;99.90;;;;;;4997215;28;20204;-78
2021/03/11 08:27:42;;;;;;;1.10;1.10;;;7.50;99.90;;;;;;4998212;28;20207;-78
2021/03/11 08:30:50;;;;;;;0.97;0.97;;;7.70;99.90;;;;;;4979510;28;20267;-77
2021/03/11 08:33:54;;;;;;;0.90;0.90;;;8.20;99.90;;;;;;4977265;28;20256;-78
2021/03/11 08:36:33;;;;;;;0.90;0.90;;;7.90;99.90;;;;;;4977516;28;20223;-78
2021/03/11 08:39:01;;;;;;;0.90;0.90;;;8.00;99.90;;;;;;4988863;28;20262;-79
2021/03/11 08:41:32;;;;;;;0.70;0.70;;;8.20;99.90;;;;;;4997102;28;20225;-79
2021/03/11 08:44:03;;;;;;;0.80;0.80;;;8.20;99.90;;;;;;4997619;28;20639;-80
2021/03/11 08:46:48;;;;;;;0.80;0.80;;;8.20;99.90;;;;;;4997379;28;20578;-78
2021/03/11 08:49:35;;;;;;;0.90;0.90;;;8.40;99.90;;;;;;4984862;28;20211;-78
2021/03/11 08:52:02;;;;;;;1.00;1.00;;;8.20;99.90;;;;;;4975777;28;20224;-79
2021/03/11 08:54:29;;;;;;;0.80;0.80;;;8.40;99.90;;;;;;4976470;28;20259;-78
2021/03/11 08:56:57;;;;;;;0.80;0.80;;;8.40;99.90;;;;;;4977097;28;20735;-79
2021/03/11 08:59:44;;;;;;;1.05;1.05;;;8.60;99.90;;;;;;4990806;28;20275;-78
2021/03/11 09:02:33;;;;;;;0.88;0.88;;;8.80;99.90;;;;;;4987577;28;20232;-80
2021/03/11 09:05:01;;;;;;;0.80;0.80;;;9.00;99.90;;;;;;4990841;28;20215;-80
2021/03/11 09:07:29;;;;;;;1.07;1.07;;;8.90;99.90;;;;;;4998837;28;20200;-79
2021/03/11 09:09:57;;;;;;;0.90;0.90;;;8.70;99.90;;;;;;4980924;28;20665;-79
2021/03/11 09:12:30;;;;;;;0.95;0.95;;;8.90;99.90;;;;;;4981538;28;20728;-81
2021/03/11 09:15:00;;;;;;;1.00;1.00;;;9.00;99.90;;;;;;4993252;28;20575;-79
2021/03/11 09:17:30;;;;;;;0.80;0.80;;;8.90;99.90;;;;;;4986464;28;20209;-79
2021/03/11 09:20:00;;;;;;;0.93;0.93;;;9.00;99.90;;;;;;4979063;28;20219;-80
2021/03/11 09:22:30;;;;;;;0.73;0.73;;;8.90;99.90;;;;;;4975964;28;20225;-80
2021/03/11 09:25:00;;;;;;;0.90;0.90;;;9.00;99.90;;;;;;4986868;28;20223;-77
2021/03/11 09:27:28;;;;;;;0.80;0.80;;;9.00;99.90;;;;;;4994446;28;20278;-80
2021/03/11 09:29:56;;;;;;;1.00;1.00;;;8.90;99.90;;;;;;4992520;28;20287;-77
2021/03/11 09:32:28;;;;;;;0.90;0.90;;;9.00;99.90;;;;;;4993555;28;20314;-77
2021/03/11 09:34:57;;;;;;;0.93;0.93;;;9.30;99.90;;;;;;4994480;28;20214;-78
2021/03/11 09:37:44;;;;;;;0.60;0.60;;;9.70;99.90;;;;;;4994546;28;20254;-77
2021/03/11 09:40:13;;;;;;;0.80;0.80;;;9.60;99.90;;;;;;4993497;28;20204;-81
2021/03/11 09:43:10;;;;;;;0.70;0.70;;;9.60;99.90;;;;;;4993722;28;20608;-77
2021/03/11 09:45:40;;;;;;;0.88;0.88;;;9.40;99.90;;;;;;4972117;28;20212;-78
2021/03/11 09:48:26;;;;;;;0.80;0.80;;;9.70;99.90;;;;;;4986522;28;20242;-79
2021/03/11 09:51:03;;;;;;;0.80;0.80;;;9.60;99.90;;;;;;4987064;28;20228;-78
2021/03/11 09:53:37;;;;;;;0.70;0.70;;;9.70;99.90;;;;;;4981806;28;20204;-78
2021/03/11 09:56:05;;;;;;;0.68;0.68;;;9.80;99.90;;;;;;4987345;28;20219;-77
2021/03/11 09:58:32;;;;;;;0.80;0.80;;;10.00;99.90;;;;;;4985166;28;20251;-78
2021/03/11 10:00:59;;;;;;;0.70;0.70;;;10.00;99.90;;;;;;4982591;28;20232;-78
2021/03/11 10:03:29;;;;;;;0.90;0.90;;;10.20;99.90;;;;;;4983308;28;20208;-78
2021/03/11 10:05:58;;;;;;;0.90;0.90;;;10.20;99.90;;;;;;4994203;28;20282;-78
2021/03/11 10:08:31;;;;;;;0.70;0.70;;;10.40;99.90;;;;;;4994750;28;20207;-78
2021/03/11 10:11:10;;;;;;;0.75;0.75;;;10.40;99.90;;;;;;4987070;28;20625;-78
2021/03/11 10:13:40;;;;;;;0.80;0.80;;;10.60;99.90;;;;;;4973122;28;20189;-77
2021/03/11 10:16:09;;;;;;;0.73;0.73;;;10.80;99.90;;;;;;4971489;28;20235;-78
2021/03/11 10:18:58;;;;;;;0.60;0.60;;;10.80;99.90;;;;;;4972362;28;20221;-77
2021/03/11 10:21:24;;;;;;;0.70;0.70;;;10.90;99.90;;;;;;4973761;28;20642;-78
2021/03/11 10:23:52;;;;;;;0.70;0.70;;;11.10;99.90;;;;;;4975380;28;20220;-77
2021/03/11 10:26:21;;;;;;;0.80;0.80;;;11.30;99.90;;;;;;4992997;28;20208;-78
2021/03/11 10:28:50;;;;;;;0.70;0.70;;;11.30;99.90;;;;;;4992226;28;20204;-77
2021/03/11 10:31:17;;;;;;;0.65;0.65;;;11.50;99.90;;;;;;4992650;28;20743;-79
2021/03/11 10:33:45;;;;;;;0.70;0.70;;;11.80;99.90;;;;;;4993779;28;20203;-78
2021/03/11 10:36:14;;;;;;;0.60;0.60;;;11.90;99.90;;;;;;4993901;28;20208;-79
2021/03/11 10:38:42;;;;;;;0.70;0.70;;;11.90;99.90;;;;;;4993445;28;20247;-77
2021/03/11 10:41:12;;;;;;;0.68;0.68;;;11.90;99.90;;;;;;4993607;28;20712;-77
2021/03/11 10:43:41;;;;;;;0.65;0.65;;;11.80;99.90;;;;;;4994360;28;20204;-79
2021/03/11 10:46:09;;;;;;;0.50;0.50;;;11.80;99.90;;;;;;4974824;28;20208;-79
2021/03/11 10:48:48;;;;;;;0.75;0.75;;;11.80;99.90;;;;;;4975091;28;20197;-77
2021/03/11 10:51:19;;;;;;;0.70;0.70;;;11.70;99.90;;;;;;4975029;28;20221;-77
2021/03/11 10:53:46;;;;;;;0.70;0.70;;;11.40;99.90;;;;;;4975940;28;20255;-78
2021/03/11 10:56:13;;;;;;;0.70;0.70;;;11.40;99.90;;;;;;4975295;28;20665;-78
2021/03/11 10:58:41;;;;;;;0.70;0.70;;;11.50;99.90;;;;;;4984346;28;20220;-78
2021/03/11 11:01:21;;;;;;;0.75;0.75;;;11.40;99.90;;;;;;4995182;28;20228;-78
2021/03/11 11:03:49;;;;;;;0.80;0.80;;;11.10;99.90;;;;;;4996313;28;20204;-78
2021/03/11 11:06:16;;;;;;;0.70;0.70;;;11.00;99.90;;;;;;4973303;28;20275;-78
2021/03/11 11:08:44;;;;;;;0.50;0.50;;;11.00;99.90;;;;;;4972961;28;20207;-76
2021/03/11 11:11:11;;;;;;;0.60;0.60;;;11.10;99.90;;;;;;4971544;28;20232;-76
2021/03/11 11:13:38;;;;;;;0.80;0.80;;;10.50;99.90;;;;;;4971972;28;20204;-75
2021/03/11 11:16:06;;;;;;;0.70;0.70;;;10.20;99.90;;;;;;4974507;28;20808;-76
2021/03/11 11:18:33;;;;;;;0.80;0.80;;;10.30;99.90;;;;;;4977708;28;20232;-76
2021/03/11 11:21:02;;;;;;;0.80;0.80;;;10.30;99.90;;;;;;4978497;28;20314;-74
2021/03/11 11:23:30;;;;;;;0.70;0.70;;;10.30;99.90;;;;;;4976334;28;20574;-74
2021/03/11 11:25:57;;;;;;;0.70;0.70;;;10.20;99.90;;;;;;4994200;28;20206;-78
2021/03/11 11:28:24;;;;;;;0.80;0.80;;;10.10;99.90;;;;;;4998154;28;20200;-77
2021/03/11 11:30:52;;;;;;;0.80;0.80;;;9.90;99.90;;;;;;4998677;28;20255;-79
2021/03/11 11:33:19;;;;;;;0.90;0.90;;;9.80;99.90;;;;;;4998379;28;20258;-78
2021/03/11 11:35:46;;;;;;;0.60;0.60;;;9.70;99.90;;;;;;4984636;28;20213;-78
2021/03/11 11:38:14;;;;;;;0.60;0.60;;;9.60;99.90;;;;;;4977500;28;20294;-77
2021/03/11 11:40:40;;;;;;;0.90;0.90;;;9.40;99.90;;;;;;4977156;28;20783;-77
2021/03/11 11:43:07;;;;;;;0.90;0.90;;;9.40;99.90;;;;;;4977665;28;20264;-78
2021/03/11 11:45:34;;;;;;;0.70;0.70;;;9.30;99.90;;;;;;4992849;28;20212;-78
2021/03/11 11:48:02;;;;;;;0.60;0.60;;;9.30;99.90;;;;;;4999133;28;20696;-77
2021/03/11 11:50:46;;;;;;;0.60;0.60;;;9.20;99.90;;;;;;4978357;28;20224;-76
2021/03/11 11:53:15;;;;;;;0.80;0.80;;;9.30;99.90;;;;;;4977823;28;20208;-76
2021/03/11 11:55:43;;;;;;;0.88;0.88;;;9.40;99.90;;;;;;4988806;28;20235;-76
2021/03/11 11:58:09;;;;;;;0.88;0.88;;;9.30;99.90;;;;;;4981264;28;20235;-77
2021/03/11 12:00:37;;;;;;;0.80;0.80;;;9.40;99.90;;;;;;4978044;28;20283;-77
2021/03/11 12:03:05;;;;;;;0.80;0.80;;;9.50;99.90;;;;;;4990123;28;20737;-75
2021/03/11 12:05:32;;;;;;;1.00;1.00;;;9.50;99.90;;;;;;4978291;28;20211;-78
2021/03/11 12:07:59;;;;;;;0.70;0.70;;;9.60;99.90;;;;;;4976001;28;20289;-79
2021/03/11 12:10:27;;;;;;;0.80;0.80;;;10.00;99.90;;;;;;4995200;28;20218;-77
2021/03/11 12:12:54;;;;;;;0.80;0.80;;;10.00;99.90;;;;;;4997309;28;20212;-78
2021/03/11 12:15:21;;;;;;;0.70;0.70;;;10.40;99.90;;;;;;4996186;28;20210;-78
2021/03/11 12:17:49;;;;;;;0.60;0.60;;;10.60;99.90;;;;;;4996466;28;20200;-78
2021/03/11 12:20:32;;;;;;;0.80;0.80;;;10.90;99.90;;;;;;4996949;28;20246;-79
2021/03/11 12:22:59;;;;;;;0.70;0.70;;;10.90;99.90;;;;;;4990255;28;20205;-79
2021/03/11 12:25:26;;;;;;;0.70;0.70;;;10.90;99.90;;;;;;4980325;28;20262;-79
2021/03/11 12:27:53;;;;;;;0.65;0.65;;;11.10;99.90;;;;;;4991546;28;20208;-79
2021/03/11 12:30:21;;;;;;;0.70;0.70;;;11.50;99.90;;;;;;4983595;28;20554;-78
2021/03/11 12:32:49;;;;;;;0.70;0.70;;;11.40;99.90;;;;;;4985370;28;20244;-78
2021/03/11 12:35:17;;;;;;;0.70;0.70;;;11.70;99.90;;;;;;4977257;28;20291;-77
2021/03/11 12:37:44;;;;;;;0.60;0.60;;;12.10;99.90;;;;;;4995991;28;20206;-79
2021/03/11 12:40:12;;;;;;;0.63;0.63;;;12.20;99.90;;;;;;4998047;28;20435;-78
2021/03/11 12:42:41;;;;;;;0.70;0.70;;;12.30;99.90;;;;;;4996667;28;20227;-78
2021/03/11 12:45:09;;;;;;;0.60;0.60;;;12.50;99.90;;;;;;4989043;28;20263;-79
2021/03/11 12:47:36;;;;;;;0.60;0.60;;;12.30;99.90;;;;;;4975169;28;20240;-78
2021/03/11 12:50:05;;;;;;;0.70;0.70;;;12.30;99.90;;;;;;4986599;28;20211;-79
2021/03/11 12:52:32;;;;;;;0.60;0.60;;;12.40;99.90;;;;;;4984546;28;20701;-78
2021/03/11 12:54:59;;;;;;;0.60;0.60;;;12.80;99.90;;;;;;4994510;28;20212;-78
2021/03/11 12:57:28;;;;;;;0.60;0.60;;;13.20;99.90;;;;;;4989689;28;20200;-79
2021/03/11 12:59:55;;;;;;;0.65;0.65;;;13.20;99.90;;;;;;4996872;28;20596;-79
2021/03/11 13:02:22;;;;;;;0.60;0.60;;;13.30;99.90;;;;;;4990616;28;20693;-78
2021/03/11 13:04:49;;;;;;;0.50;0.50;;;13.30;99.90;;;;;;4977987;28;20669;-78
2021/03/11 13:07:17;;;;;;;0.60;0.60;;;13.40;99.90;;;;;;4976991;28;20204;-79
2021/03/11 13:09:44;;;;;;;0.60;0.60;;;13.40;99.90;;;;;;4983847;28;20669;-78
2021/03/11 13:12:12;;;;;;;0.50;0.50;;;13.60;99.90;;;;;;4996873;28;20291;-79
2021/03/11 13:14:38;;;;;;;0.50;0.50;;;13.80;99.90;;;;;;4984450;28;20208;-76
2021/03/11 13:17:06;;;;;;;0.60;0.60;;;14.10;99.90;;;;;;4981362;28;20201;-77
2021/03/11 13:19:35;;;;;;;0.70;0.70;;;;;;;;;;4973892;28;20224;-76
2021/03/11 13:22:04;;;;;;;0.50;0.50;;;14.20;99.20;;;;;;4973642;28;20271;-76
2021/03/11 13:24:31;;;;;;;0.50;0.50;;;14.20;99.60;;;;;;4973314;28;20255;-76
2021/03/11 13:26:58;;;;;;;0.50;0.50;;;14.30;99.90;;;;;;4990003;28;20266;-77
2021/03/11 13:29:24;;;;;;;0.40;0.40;;;14.40;99.70;;;;;;4992861;28;20207;-77
2021/03/11 13:31:52;;;;;;;0.60;0.60;;;14.60;99.30;;;;;;4993047;28;20278;-77
2021/03/11 13:34:19;;;;;;;0.40;0.40;;;14.30;99.60;;;;;;4993020;28;20535;-76
2021/03/11 13:36:46;;;;;;;0.60;0.60;;;14.20;99.50;;;;;;4991089;28;20214;-77
2021/03/11 13:39:13;;;;;;;0.50;0.50;;;13.90;99.50;;;;;;4990405;28;20579;-77
2021/03/11 13:41:40;;;;;;;0.50;0.50;;;13.90;99.90;;;;;;4993910;28;20278;-78
2021/03/11 13:44:08;;;;;;;0.40;0.40;;;13.90;99.90;;;;;;4990086;28;20200;-76
2021/03/11 13:46:40;;;;;;;0.57;0.57;;;14.00;99.90;;;;;;4980480;28;20204;-78
2021/03/11 13:49:08;;;;;;;0.40;0.40;;;13.90;99.90;;;;;;4992278;28;20653;-78
2021/03/11 13:51:36;;;;;;;0.40;0.40;;;14.00;99.80;;;;;;4992517;28;20231;-78
2021/03/11 13:54:03;;;;;;;0.50;0.50;;;14.10;99.80;;;;;;4992495;28;20211;-78
2021/03/11 13:56:30;;;;;;;0.60;0.60;;;13.90;99.90;;;;;;4980199;28;20219;-78
2021/03/11 13:58:57;;;;;;;0.40;0.40;;;13.90;99.50;;;;;;4973511;28;20616;-77
2021/03/11 14:01:24;;;;;;;0.40;0.40;;;13.90;99.90;;;;;;4972420;28;20283;-77
2021/03/11 14:03:51;;;;;;;0.40;0.40;;;14.10;99.60;;;;;;4972567;28;20220;-77
2021/03/11 14:06:20;;;;;;;0.50;0.50;;;14.10;99.20;;;;;;4983062;28;20235;-77
2021/03/11 14:08:47;;;;;;;0.40;0.40;;;14.40;99.80;;;;;;4993132;28;20200;-78
2021/03/11 14:11:14;;;;;;;0.40;0.40;;;14.70;99.40;;;;;;4994281;28;20231;-77
2021/03/11 14:13:41;;;;;;;0.50;0.50;;;14.60;98.40;;;;;;4992237;28;20424;-77
2021/03/11 14:16:09;;;;;;;0.50;0.50;;;14.50;99.10;;;;;;4992724;28;20211;-77
2021/03/11 14:18:36;;;;;;;0.40;0.40;;;14.80;99.10;;;;;;4992774;28;20239;-77
2021/03/11 14:21:04;;;;;;;0.40;0.40;;;14.90;98.40;;;;;;4992793;28;20246;-77
2021/03/11 14:23:31;;;;;;;0.40;0.40;;;14.80;98.00;;;;;;4992391;28;20207;-77
2021/03/11 14:25:59;;;;;;;0.50;0.50;;;14.90;98.00;;;;;;4985376;28;20200;-77
2021/03/11 14:28:26;;;;;;;0.40;0.40;;;15.30;99.90;;;;;;4975927;28;20266;-78
2021/03/11 14:30:53;;;;;;;0.50;0.50;;;14.90;97.90;;;;;;4980044;28;21056;-77
2021/03/11 14:33:20;;;;;;;0.40;0.40;;;14.70;98.10;;;;;;4973908;28;20204;-78
2021/03/11 14:35:47;;;;;;;0.40;0.40;;;14.60;98.40;;;;;;4973323;28;20232;-78
2021/03/11 14:38:16;;;;;;;0.50;0.50;;;14.70;98.40;;;;;;4973279;28;20227;-78
2021/03/11 14:40:43;;;;;;;0.40;0.40;;;14.50;98.20;;;;;;4973509;28;20224;-78
2021/03/11 14:43:12;;;;;;;0.40;0.40;;;14.40;98.40;;;;;;4973249;28;20200;-78
2021/03/11 14:45:39;;;;;;;0.40;0.40;;;14.50;98.20;;;;;;4977024;28;20266;-78
2021/03/11 14:48:07;;;;;;;0.50;0.50;;;14.50;98.30;;;;;;4992994;28;20208;-79
2021/03/11 14:50:36;;;;;;;0.50;0.50;;;14.50;98.50;;;;;;4994764;28;20595;-78
2021/03/11 14:53:03;;;;;;;0.50;0.50;;;14.30;98.20;;;;;;4996426;28;20208;-77
2021/03/11 14:55:30;;;;;;;0.50;0.50;;;14.30;98.70;;;;;;4993933;28;20262;-77
2021/03/11 14:57:57;;;;;;;0.50;0.50;;;14.30;98.80;;;;;;4977581;28;20205;-77
2021/03/11 15:00:25;;;;;;;0.50;0.50;;;14.40;99.90;;;;;;4977875;28;20352;-77
2021/03/11 15:02:52;;;;;;;0.45;0.45;;;14.30;98.70;;;;;;4976930;28;20250;-77
2021/03/11 15:05:20;;;;;;;0.60;0.60;;;14.40;98.80;;;;;;4976667;28;20216;-78
2021/03/11 15:07:48;;;;;;;0.50;0.50;;;14.60;99.00;;;;;;4996560;28;20642;-77
2021/03/11 15:10:18;;;;;;;0.50;0.50;;;14.50;99.90;;;;;;4998134;28;20480;-77
2021/03/11 15:12:45;;;;;;;0.50;0.50;;;14.70;98.70;;;;;;4995751;28;20673;-77
2021/03/11 15:15:13;;;;;;;0.50;0.50;;;14.70;98.70;;;;;;4995893;28;20212;-77
2021/03/11 15:17:41;;;;;;;0.40;0.40;;;14.80;98.20;;;;;;4995745;28;20208;-77
2021/03/11 15:20:10;;;;;;;0.50;0.50;;;14.60;98.50;;;;;;4995041;28;20227;-77
2021/03/11 15:22:38;;;;;;;0.40;0.40;;;14.70;98.20;;;;;;4995304;28;20255;-77
2021/03/11 15:25:07;;;;;;;0.40;0.40;;;14.90;98.20;;;;;;4996857;28;20242;-79
2021/03/11 15:27:34;;;;;;;0.50;0.50;;;15.00;97.80;;;;;;4998216;28;20204;-78
2021/03/11 15:30:01;;;;;;;0.50;0.50;;;14.90;97.70;;;;;;5000451;28;20270;-77
2021/03/11 15:32:28;;;;;;;0.50;0.50;;;14.90;97.80;;;;;;4992848;28;20224;-77
2021/03/11 15:35:08;;;;;;;0.40;0.40;;;15.00;97.80;;;;;;4980928;28;20279;-78
2021/03/11 15:37:35;;;;;;;0.50;0.50;;;15.00;97.20;;;;;;4997284;28;20222;-78
2021/03/11 15:40:03;;;;;;;0.40;0.40;;;15.00;97.80;;;;;;5003625;28;20234;-78
2021/03/11 15:42:29;;;;;;;0.50;0.50;;;15.00;97.60;;;;;;4997860;28;20302;-77
2021/03/11 15:44:56;;;;;;;0.50;0.50;;;14.70;97.80;;;;;;5000283;28;20208;-77
2021/03/11 15:47:23;;;;;;;0.50;0.50;;;14.70;97.90;;;;;;4998189;28;20200;-77
2021/03/11 15:49:50;;;;;;;0.50;0.50;;;14.60;97.60;;;;;;5002395;28;20259;-77
2021/03/11 15:52:18;;;;;;;0.50;0.50;;;14.50;98.00;;;;;;4994493;28;20228;-77
2021/03/11 15:54:45;;;;;;;0.50;0.50;;;14.50;97.80;;;;;;4988962;28;20239;-77
2021/03/11 15:57:12;;;;;;;0.40;0.40;;;14.40;97.60;;;;;;4996926;28;20204;-79
2021/03/11 15:59:39;;;;;;;0.50;0.50;;;14.30;97.70;;;;;;4997505;28;20219;-79
2021/03/11 16:02:06;;;;;;;0.50;0.50;;;14.20;97.80;;;;;;4997406;28;20224;-80
2021/03/11 16:04:34;;;;;;;0.50;0.50;;;;;;;;;;4996989;28;20246;-79
2021/03/11 16:07:02;;;;;;;0.50;0.50;;;14.00;97.40;;;;;;4984111;28;20204;-77
2021/03/11 16:09:30;;;;;;;0.70;0.70;;;13.90;97.90;;;;;;4978842;28;20201;-79
2021/03/11 16:11:57;;;;;;;0.60;0.60;;;13.90;97.70;;;;;;4979864;28;20622;-80
2021/03/11 16:14:23;;;;;;;0.40;0.40;;;13.80;98.20;;;;;;4980250;28;20259;-79
2021/03/11 16:16:50;;;;;;;0.60;0.60;;;13.70;98.10;;;;;;4992277;28;20262;-80
2021/03/11 16:19:17;;;;;;;0.50;0.50;;;13.70;98.30;;;;;;5000087;28;20294;-79
2021/03/11 16:21:44;;;;;;;0.50;0.50;;;13.70;98.20;;;;;;5000713;28;20597;-79
2021/03/11 16:24:12;;;;;;;0.50;0.50;;;13.70;98.20;;;;;;4998592;28;20204;-77
2021/03/11 16:26:40;;;;;;;0.60;0.60;;;13.90;98.10;;;;;;4989198;28;20201;-81
2021/03/11 16:29:06;;;;;;;0.55;0.55;;;14.00;97.70;;;;;;4978839;28;20204;-78
2021/03/11 16:31:33;;;;;;;0.52;0.52;;;14.00;98.00;;;;;;4978134;28;20228;-78
2021/03/11 16:34:00;;;;;;;0.60;0.60;;;13.90;98.20;;;;;;4981132;28;20691;-79
2021/03/11 16:36:27;;;;;;;0.50;0.50;;;13.70;97.70;;;;;;4987199;28;20204;-79
2021/03/11 16:38:54;;;;;;;0.52;0.52;;;13.50;98.00;;;;;;4999565;28;20242;-79
2021/03/11 16:41:21;;;;;;;0.52;0.52;;;13.40;98.60;;;;;;4999140;28;20268;-78
2021/03/11 16:43:49;;;;;;;0.60;0.60;;;13.30;99.00;;;;;;4999138;28;20200;-78
2021/03/11 16:46:16;;;;;;;0.50;0.50;;;13.20;99.60;;;;;;4998318;28;20238;-79
2021/03/11 16:48:43;;;;;;;0.50;0.50;;;13.10;99.90;;;;;;4998216;28;20216;-77
2021/03/11 16:51:10;;;;;;;0.50;0.50;;;13.10;99.90;;;;;;4994342;28;20224;-77
2021/03/11 16:53:36;;;;;;;0.73;0.73;;;13.10;99.90;;;;;;4996246;28;20620;-80
2021/03/11 16:56:04;;;;;;;0.60;0.60;;;13.00;99.90;;;;;;4990496;28;20567;-77
2021/03/11 16:58:31;;;;;;;0.60;0.60;;;13.00;99.90;;;;;;4975044;28;20208;-77
2021/03/11 17:00:59;;;;;;;0.68;0.68;;;12.90;99.90;;;;;;4975191;28;20228;-77
2021/03/11 17:03:26;;;;;;;0.60;0.60;;;12.90;99.90;;;;;;4974118;28;20208;-77
2021/03/11 17:06:13;;;;;;;0.60;0.60;;;12.90;99.90;;;;;;4974482;28;20315;-76
2021/03/11 17:08:40;;;;;;;0.50;0.50;;;12.90;99.90;;;;;;4974056;28;20595;-77
2021/03/11 17:11:07;;;;;;;0.60;0.60;;;12.80;99.90;;;;;;4973510;28;20232;-77
2021/03/11 17:13:34;;;;;;;0.60;0.60;;;12.70;99.90;;;;;;4973078;28;20990;-77
2021/03/11 17:16:01;;;;;;;0.60;0.60;;;12.60;99.90;;;;;;4974062;28;20309;-77
2021/03/11 17:18:29;;;;;;;0.50;0.50;;;12.60;99.90;;;;;;4973813;28;20208;-77
2021/03/11 17:20:56;;;;;;;0.70;0.70;;;12.50;99.90;;;;;;4973833;28;20315;-78
2021/03/11 17:23:22;;;;;;;0.70;0.70;;;12.50;99.90;;;;;;4974983;28;20634;-78
2021/03/11 17:25:49;;;;;;;0.80;0.80;;;12.50;99.90;;;;;;4995362;28;20207;-78
2021/03/11 17:28:16;;;;;;;0.60;0.60;;;12.60;99.90;;;;;;4976624;28;20228;-78
2021/03/11 17:30:43;;;;;;;0.70;0.70;;;12.30;99.90;;;;;;4981324;28;20216;-77
2021/03/11 17:33:11;;;;;;;0.77;0.77;;;11.90;99.90;;;;;;4983546;28;20212;-76
2021/03/11 17:35:38;;;;;;;0.80;0.80;;;11.50;99.90;;;;;;4976419;28;20721;-79
2021/03/11 17:38:05;;;;;;;0.70;0.70;;;11.20;99.90;;;;;;4978366;28;20199;-77
2021/03/11 17:40:32;;;;;;;0.88;0.88;;;10.80;99.90;;;;;;4975154;28;20697;-78
2021/03/11 17:42:59;;;;;;;0.70;0.70;;;10.50;99.90;;;;;;4977023;28;20681;-79
2021/03/11 17:45:37;;;;;;;1.00;1.00;;;10.20;99.90;;;;;;4975463;28;20214;-78
2021/03/11 17:48:05;;;;;;;0.80;0.80;;;10.00;99.90;;;;;;4975037;28;20210;-77
2021/03/11 17:50:33;;;;;;;0.80;0.80;;;9.80;99.90;;;;;;4976238;28;20220;-79
2021/03/11 17:53:02;;;;;;;0.95;0.95;;;9.70;99.90;;;;;;4976551;28;20290;-78
2021/03/11 17:55:29;;;;;;;0.80;0.80;;;9.70;99.90;;;;;;4978966;28;20669;-76
2021/03/11 17:57:56;;;;;;;0.70;0.70;;;9.80;99.90;;;;;;4982290;28;20232;-79
2021/03/11 18:00:24;;;;;;;0.80;0.80;;;9.80;99.90;;;;;;4983016;28;20617;-77
2021/03/11 18:02:51;;;;;;;0.70;0.70;;;9.80;99.90;;;;;;4981227;28;20235;-78
2021/03/11 18:05:41;;;;;;;0.80;0.80;;;9.80;99.90;;;;;;4985096;28;20236;-78
2021/03/11 18:08:08;;;;;;;0.90;0.90;;;9.70;99.90;;;;;;4984264;28;20231;-78
2021/03/11 18:10:35;;;;;;;0.80;0.80;;;9.70;99.90;;;;;;4976625;28;20228;-79
2021/03/11 18:13:02;;;;;;;0.95;0.95;;;9.70;99.90;;;;;;4982706;28;20295;-78
2021/03/11 18:15:29;;;;;;;0.80;0.80;;;9.70;99.90;;;;;;4987832;28;20200;-79
2021/03/11 18:18:03;;;;;;;0.80;0.80;;;9.70;99.90;;;;;;4991616;28;20204;-79